sensor_id;sensor_type;location;lat;lon;timestamp;temperature;humidity
5962;DHT22;3007;50.770;0.250;2023-04-01T00:01:30;10.60;99.90
5962;DHT22;3007;50.770;0.250;2023-04-01T00:03:57;10.60;99.90
5962;DHT22;3007;50.770;0.250;2023-04-01T00:06:26;10.60;99.90
5962;DHT22;3007;50.770;0.250;2023-04-01T00:08:53;10.60;99.90
5962;DHT22;3007;50.770;0.250;2023-04-01T00:11:20;10.60;99.90
5962;DHT22;3007;50.770;0.250;2023-04-01T00:13:47;10.60;99.90
5962;DHT22;3007;50.770;0.250;2023-04-01T00:16:15;10.60;99.90
5962;DHT22;3007;50.770;0.250;2023-04-01T00:18:42;10.60;99.90
5962;DHT22;3007;50.770;0.250;2023-04-01T00:21:09;10.60;99.90
5962;DHT22;3007;50.770;0.250;2023-04-01T00:23:37;10.60;99.90
5962;DHT22;3007;50.770;0.250;2023-04-01T00:26:04;10.60;99.90
5962;DHT22;3007;50.770;0.250;2023-04-01T00:28:31;10.60;99.90
5962;DHT22;3007;50.770;0.250;2023-04-01T00:31:04;10.60;99.90
5962;DHT22;3007;50.770;0.250;2023-04-01T00:33:32;10.60;99.90
5962;DHT22;3007;50.770;0.250;2023-04-01T00:36:06;10.60;99.90
5962;DHT22;3007;50.770;0.250;2023-04-01T00:38:34;10.60;99.90
5962;DHT22;3007;50.770;0.250;2023-04-01T00:41:02;10.60;99.90
5962;DHT22;3007;50.770;0.250;2023-04-01T00:43:29;10.70;99.90
5962;DHT22;3007;50.770;0.250;2023-04-01T00:45:57;10.70;99.90
5962;DHT22;3007;50.770;0.250;2023-04-01T00:48:27;10.70;99.90
5962;DHT22;3007;50.770;0.250;2023-04-01T00:50:59;10.70;99.90
5962;DHT22;3007;50.770;0.250;2023-04-01T00:53:28;10.70;99.90
5962;DHT22;3007;50.770;0.250;2023-04-01T00:55:58;10.70;99.90
5962;DHT22;3007;50.770;0.250;2023-04-01T00:58:30;10.70;99.90
5962;DHT22;3007;50.770;0.250;2023-04-01T01:00:59;10.70;99.90
5962;DHT22;3007;50.770;0.250;2023-04-01T01:03:26;10.70;99.90
5962;DHT22;3007;50.770;0.250;2023-04-01T01:06:05;10.70;99.90
5962;DHT22;3007;50.770;0.250;2023-04-01T01:08:47;10.70;99.90
5962;DHT22;3007;50.770;0.250;2023-04-01T01:11:22;10.60;99.90
5962;DHT22;3007;50.770;0.250;2023-04-01T01:13:58;10.70;99.90
5962;DHT22;3007;50.770;0.250;2023-04-01T01:16:30;10.60;99.90
5962;DHT22;3007;50.770;0.250;2023-04-01T01:19:06;10.60;99.90
5962;DHT22;3007;50.770;0.250;2023-04-01T01:21:49;10.60;99.90
5962;DHT22;3007;50.770;0.250;2023-04-01T01:24:43;10.70;99.90
5962;DHT22;3007;50.770;0.250;2023-04-01T01:27:15;10.60;99.90
5962;DHT22;3007;50.770;0.250;2023-04-01T01:32:55;10.70;99.90
5962;DHT22;3007;50.770;0.250;2023-04-01T01:35:30;10.60;99.90
5962;DHT22;3007;50.770;0.250;2023-04-01T01:38:01;10.60;99.90
5962;DHT22;3007;50.770;0.250;2023-04-01T01:40:31;10.60;99.90
5962;DHT22;3007;50.770;0.250;2023-04-01T01:43:02;10.60;99.90
5962;DHT22;3007;50.770;0.250;2023-04-01T01:45:33;10.60;99.90
5962;DHT22;3007;50.770;0.250;2023-04-01T01:48:02;10.60;99.90
5962;DHT22;3007;50.770;0.250;2023-04-01T01:50:32;10.60;99.90
5962;DHT22;3007;50.770;0.250;2023-04-01T01:53:05;10.60;99.90
5962;DHT22;3007;50.770;0.250;2023-04-01T01:55:33;10.60;99.90
5962;DHT22;3007;50.770;0.250;2023-04-01T01:58:05;10.60;99.90
5962;DHT22;3007;50.770;0.250;2023-04-01T02:00:35;10.60;99.90
5962;DHT22;3007;50.770;0.250;2023-04-01T02:03:02;10.60;99.90
5962;DHT22;3007;50.770;0.250;2023-04-01T02:05:32;10.60;99.90
5962;DHT22;3007;50.770;0.250;2023-04-01T02:08:03;10.60;99.90
5962;DHT22;3007;50.770;0.250;2023-04-01T02:10:35;10.60;99.90
5962;DHT22;3007;50.770;0.250;2023-04-01T02:13:07;10.60;99.90
5962;DHT22;3007;50.770;0.250;2023-04-01T02:15:40;10.60;99.90
5962;DHT22;3007;50.770;0.250;2023-04-01T02:18:09;10.60;99.90
5962;DHT22;3007;50.770;0.250;2023-04-01T02:20:40;10.60;99.90
5962;DHT22;3007;50.770;0.250;2023-04-01T02:23:07;10.60;99.90
5962;DHT22;3007;50.770;0.250;2023-04-01T02:25:36;10.60;99.90
5962;DHT22;3007;50.770;0.250;2023-04-01T02:28:05;10.60;99.90
5962;DHT22;3007;50.770;0.250;2023-04-01T02:30:35;10.60;99.90
5962;DHT22;3007;50.770;0.250;2023-04-01T02:33:03;10.60;99.90
5962;DHT22;3007;50.770;0.250;2023-04-01T02:35:33;10.70;99.90
5962;DHT22;3007;50.770;0.250;2023-04-01T02:38:02;10.60;99.90
5962;DHT22;3007;50.770;0.250;2023-04-01T02:40:29;10.60;99.90
5962;DHT22;3007;50.770;0.250;2023-04-01T02:43:06;10.60;99.90
5962;DHT22;3007;50.770;0.250;2023-04-01T02:45:33;10.60;99.90
5962;DHT22;3007;50.770;0.250;2023-04-01T02:48:00;10.60;99.90
5962;DHT22;3007;50.770;0.250;2023-04-01T02:50:27;10.60;99.90
5962;DHT22;3007;50.770;0.250;2023-04-01T02:52:54;10.60;99.90
5962;DHT22;3007;50.770;0.250;2023-04-01T02:55:23;10.60;99.90
5962;DHT22;3007;50.770;0.250;2023-04-01T02:57:49;10.60;99.90
5962;DHT22;3007;50.770;0.250;2023-04-01T03:00:17;10.60;99.90
5962;DHT22;3007;50.770;0.250;2023-04-01T03:02:44;10.50;99.90
5962;DHT22;3007;50.770;0.250;2023-04-01T03:05:11;10.60;99.90
5962;DHT22;3007;50.770;0.250;2023-04-01T03:07:38;10.60;99.90
5962;DHT22;3007;50.770;0.250;2023-04-01T03:10:06;10.60;99.90
5962;DHT22;3007;50.770;0.250;2023-04-01T03:12:35;10.50;99.90
5962;DHT22;3007;50.770;0.250;2023-04-01T03:15:02;10.50;99.90
5962;DHT22;3007;50.770;0.250;2023-04-01T03:17:29;10.50;99.90
5962;DHT22;3007;50.770;0.250;2023-04-01T03:19:56;10.50;99.90
5962;DHT22;3007;50.770;0.250;2023-04-01T03:22:23;10.50;99.90
5962;DHT22;3007;50.770;0.250;2023-04-01T03:24:50;10.60;99.90
5962;DHT22;3007;50.770;0.250;2023-04-01T03:27:17;10.50;99.90
5962;DHT22;3007;50.770;0.250;2023-04-01T03:29:45;10.50;99.90
5962;DHT22;3007;50.770;0.250;2023-04-01T03:32:12;10.50;99.90
5962;DHT22;3007;50.770;0.250;2023-04-01T03:34:39;10.60;99.90
5962;DHT22;3007;50.770;0.250;2023-04-01T03:37:06;10.60;99.90
5962;DHT22;3007;50.770;0.250;2023-04-01T03:39:33;10.60;99.90
5962;DHT22;3007;50.770;0.250;2023-04-01T03:42:00;10.60;99.90
5962;DHT22;3007;50.770;0.250;2023-04-01T03:44:30;10.50;99.90
5962;DHT22;3007;50.770;0.250;2023-04-01T03:46:59;10.60;99.90
5962;DHT22;3007;50.770;0.250;2023-04-01T03:49:26;10.60;99.90
5962;DHT22;3007;50.770;0.250;2023-04-01T03:51:53;10.60;99.90
5962;DHT22;3007;50.770;0.250;2023-04-01T03:54:20;10.60;99.90
5962;DHT22;3007;50.770;0.250;2023-04-01T03:56:47;10.60;99.90
5962;DHT22;3007;50.770;0.250;2023-04-01T03:59:17;10.50;99.90
5962;DHT22;3007;50.770;0.250;2023-04-01T04:01:44;10.60;99.90
5962;DHT22;3007;50.770;0.250;2023-04-01T04:04:14;10.60;99.90
5962;DHT22;3007;50.770;0.250;2023-04-01T04:06:41;10.50;99.90
5962;DHT22;3007;50.770;0.250;2023-04-01T04:09:08;10.60;99.90
5962;DHT22;3007;50.770;0.250;2023-04-01T04:11:35;10.60;99.90
5962;DHT22;3007;50.770;0.250;2023-04-01T04:14:02;10.60;99.90
5962;DHT22;3007;50.770;0.250;2023-04-01T04:16:29;10.60;99.90
5962;DHT22;3007;50.770;0.250;2023-04-01T04:18:56;10.60;99.90
5962;DHT22;3007;50.770;0.250;2023-04-01T04:21:24;10.60;99.90
5962;DHT22;3007;50.770;0.250;2023-04-01T04:23:51;10.60;99.90
5962;DHT22;3007;50.770;0.250;2023-04-01T04:26:18;10.50;99.90
5962;DHT22;3007;50.770;0.250;2023-04-01T04:28:45;10.60;99.90
5962;DHT22;3007;50.770;0.250;2023-04-01T04:31:12;10.50;99.90
5962;DHT22;3007;50.770;0.250;2023-04-01T04:33:39;10.50;99.90
5962;DHT22;3007;50.770;0.250;2023-04-01T04:36:06;10.50;99.90
5962;DHT22;3007;50.770;0.250;2023-04-01T04:38:34;10.50;99.90
5962;DHT22;3007;50.770;0.250;2023-04-01T04:41:01;10.50;99.90
5962;DHT22;3007;50.770;0.250;2023-04-01T04:43:28;10.50;99.90
5962;DHT22;3007;50.770;0.250;2023-04-01T04:45:55;10.50;99.90
5962;DHT22;3007;50.770;0.250;2023-04-01T04:48:22;10.50;99.90
5962;DHT22;3007;50.770;0.250;2023-04-01T04:50:50;10.50;99.90
5962;DHT22;3007;50.770;0.250;2023-04-01T04:53:18;10.50;99.90
5962;DHT22;3007;50.770;0.250;2023-04-01T04:55:48;10.50;99.90
5962;DHT22;3007;50.770;0.250;2023-04-01T04:58:16;10.50;99.90
5962;DHT22;3007;50.770;0.250;2023-04-01T05:00:46;10.50;99.90
5962;DHT22;3007;50.770;0.250;2023-04-01T05:03:13;10.50;99.90
5962;DHT22;3007;50.770;0.250;2023-04-01T05:05:48;10.50;99.90
5962;DHT22;3007;50.770;0.250;2023-04-01T05:08:15;10.50;99.90
5962;DHT22;3007;50.770;0.250;2023-04-01T05:10:42;10.50;99.90
5962;DHT22;3007;50.770;0.250;2023-04-01T05:13:11;10.50;99.90
5962;DHT22;3007;50.770;0.250;2023-04-01T05:15:38;10.50;99.90
5962;DHT22;3007;50.770;0.250;2023-04-01T05:18:05;10.50;99.90
5962;DHT22;3007;50.770;0.250;2023-04-01T05:20:32;10.50;99.90
5962;DHT22;3007;50.770;0.250;2023-04-01T05:22:59;10.50;99.90
5962;DHT22;3007;50.770;0.250;2023-04-01T05:25:27;10.50;99.90
5962;DHT22;3007;50.770;0.250;2023-04-01T05:27:54;10.50;99.90
5962;DHT22;3007;50.770;0.250;2023-04-01T05:30:22;10.50;99.90
5962;DHT22;3007;50.770;0.250;2023-04-01T05:32:49;10.50;99.90
5962;DHT22;3007;50.770;0.250;2023-04-01T05:35:16;10.50;99.90
5962;DHT22;3007;50.770;0.250;2023-04-01T05:37:43;10.50;99.90
5962;DHT22;3007;50.770;0.250;2023-04-01T05:40:10;10.50;99.90
5962;DHT22;3007;50.770;0.250;2023-04-01T05:42:37;10.50;99.90
5962;DHT22;3007;50.770;0.250;2023-04-01T05:45:05;10.50;99.90
5962;DHT22;3007;50.770;0.250;2023-04-01T05:47:34;10.40;99.90
5962;DHT22;3007;50.770;0.250;2023-04-01T05:50:01;10.40;99.90
5962;DHT22;3007;50.770;0.250;2023-04-01T05:52:28;10.40;99.90
5962;DHT22;3007;50.770;0.250;2023-04-01T05:54:55;10.50;99.90
5962;DHT22;3007;50.770;0.250;2023-04-01T05:57:21;10.40;99.90
5962;DHT22;3007;50.770;0.250;2023-04-01T05:59:48;10.50;99.90
5962;DHT22;3007;50.770;0.250;2023-04-01T06:02:17;10.40;99.90
5962;DHT22;3007;50.770;0.250;2023-04-01T06:04:45;10.40;99.90
5962;DHT22;3007;50.770;0.250;2023-04-01T06:07:13;10.40;99.90
5962;DHT22;3007;50.770;0.250;2023-04-01T06:09:40;10.40;99.90
5962;DHT22;3007;50.770;0.250;2023-04-01T06:12:30;10.40;99.90
5962;DHT22;3007;50.770;0.250;2023-04-01T06:15:07;10.40;99.90
5962;DHT22;3007;50.770;0.250;2023-04-01T06:17:52;10.40;99.90
5962;DHT22;3007;50.770;0.250;2023-04-01T06:20:28;10.40;99.90
5962;DHT22;3007;50.770;0.250;2023-04-01T06:23:10;10.40;99.90
5962;DHT22;3007;50.770;0.250;2023-04-01T06:25:55;10.40;99.90
5962;DHT22;3007;50.770;0.250;2023-04-01T06:28:45;10.40;99.90
5962;DHT22;3007;50.770;0.250;2023-04-01T06:31:29;10.40;99.90
5962;DHT22;3007;50.770;0.250;2023-04-01T06:34:14;10.40;99.90
5962;DHT22;3007;50.770;0.250;2023-04-01T06:36:57;10.40;99.90
5962;DHT22;3007;50.770;0.250;2023-04-01T06:39:42;10.40;99.90
5962;DHT22;3007;50.770;0.250;2023-04-01T06:42:25;10.40;99.90
5962;DHT22;3007;50.770;0.250;2023-04-01T06:45:07;10.40;99.90
5962;DHT22;3007;50.770;0.250;2023-04-01T06:47:46;10.40;99.90
5962;DHT22;3007;50.770;0.250;2023-04-01T06:50:23;10.40;99.90
5962;DHT22;3007;50.770;0.250;2023-04-01T06:53:00;10.40;99.90
5962;DHT22;3007;50.770;0.250;2023-04-01T06:55:34;10.40;99.90
5962;DHT22;3007;50.770;0.250;2023-04-01T06:58:06;10.40;99.90
5962;DHT22;3007;50.770;0.250;2023-04-01T07:00:39;10.50;99.90
5962;DHT22;3007;50.770;0.250;2023-04-01T07:03:13;10.50;99.90
5962;DHT22;3007;50.770;0.250;2023-04-01T07:05:43;10.50;99.90
5962;DHT22;3007;50.770;0.250;2023-04-01T07:08:15;10.50;99.90
5962;DHT22;3007;50.770;0.250;2023-04-01T07:10:46;10.50;99.90
5962;DHT22;3007;50.770;0.250;2023-04-01T07:13:17;10.50;99.90
5962;DHT22;3007;50.770;0.250;2023-04-01T07:15:57;10.50;99.90
5962;DHT22;3007;50.770;0.250;2023-04-01T07:18:32;10.50;99.90
5962;DHT22;3007;50.770;0.250;2023-04-01T07:21:01;10.50;99.90
5962;DHT22;3007;50.770;0.250;2023-04-01T07:23:33;10.50;99.90
5962;DHT22;3007;50.770;0.250;2023-04-01T07:26:11;10.50;99.90
5962;DHT22;3007;50.770;0.250;2023-04-01T07:28:41;10.60;99.90
5962;DHT22;3007;50.770;0.250;2023-04-01T07:31:15;10.60;99.90
5962;DHT22;3007;50.770;0.250;2023-04-01T07:33:53;10.70;99.90
5962;DHT22;3007;50.770;0.250;2023-04-01T07:36:32;10.70;99.90
5962;DHT22;3007;50.770;0.250;2023-04-01T07:39:09;10.80;99.90
5962;DHT22;3007;50.770;0.250;2023-04-01T07:41:50;10.80;99.90
5962;DHT22;3007;50.770;0.250;2023-04-01T07:44:24;10.90;99.90
5962;DHT22;3007;50.770;0.250;2023-04-01T07:47:10;11.00;99.90
5962;DHT22;3007;50.770;0.250;2023-04-01T07:49:45;11.10;99.90
5962;DHT22;3007;50.770;0.250;2023-04-01T07:52:22;11.20;99.90
5962;DHT22;3007;50.770;0.250;2023-04-01T07:54:57;11.30;99.90
5962;DHT22;3007;50.770;0.250;2023-04-01T07:57:30;11.40;99.90
5962;DHT22;3007;50.770;0.250;2023-04-01T08:00:09;11.40;99.90
5962;DHT22;3007;50.770;0.250;2023-04-01T08:02:49;11.50;99.90
5962;DHT22;3007;50.770;0.250;2023-04-01T08:05:21;11.50;99.90
5962;DHT22;3007;50.770;0.250;2023-04-01T08:07:58;11.60;99.90
5962;DHT22;3007;50.770;0.250;2023-04-01T08:10:33;11.60;99.90
5962;DHT22;3007;50.770;0.250;2023-04-01T08:13:10;11.70;99.90
5962;DHT22;3007;50.770;0.250;2023-04-01T08:15:42;11.70;99.90
5962;DHT22;3007;50.770;0.250;2023-04-01T08:18:22;11.80;99.90
5962;DHT22;3007;50.770;0.250;2023-04-01T08:20:58;11.70;99.90
5962;DHT22;3007;50.770;0.250;2023-04-01T08:23:27;11.70;99.90
5962;DHT22;3007;50.770;0.250;2023-04-01T08:26:02;11.70;99.90
5962;DHT22;3007;50.770;0.250;2023-04-01T08:28:34;11.80;99.90
5962;DHT22;3007;50.770;0.250;2023-04-01T08:31:06;11.80;99.90
5962;DHT22;3007;50.770;0.250;2023-04-01T08:33:37;11.90;99.90
5962;DHT22;3007;50.770;0.250;2023-04-01T08:36:09;11.90;99.90
5962;DHT22;3007;50.770;0.250;2023-04-01T08:38:41;11.90;99.90
5962;DHT22;3007;50.770;0.250;2023-04-01T08:47:42;11.80;99.90
5962;DHT22;3007;50.770;0.250;2023-04-01T08:50:30;11.80;99.90
5962;DHT22;3007;50.770;0.250;2023-04-01T08:53:07;11.80;99.90
5962;DHT22;3007;50.770;0.250;2023-04-01T08:55:59;11.90;99.90
5962;DHT22;3007;50.770;0.250;2023-04-01T08:58:47;11.90;99.90
5962;DHT22;3007;50.770;0.250;2023-04-01T09:01:30;11.90;99.90
5962;DHT22;3007;50.770;0.250;2023-04-01T09:04:32;12.00;99.90
5962;DHT22;3007;50.770;0.250;2023-04-01T09:07:09;12.00;99.90
5962;DHT22;3007;50.770;0.250;2023-04-01T09:10:17;12.10;99.90
5962;DHT22;3007;50.770;0.250;2023-04-01T09:13:07;12.20;99.90
5962;DHT22;3007;50.770;0.250;2023-04-01T09:15:54;12.30;99.90
5962;DHT22;3007;50.770;0.250;2023-04-01T09:18:54;12.50;99.90
5962;DHT22;3007;50.770;0.250;2023-04-01T09:21:35;12.50;99.90
5962;DHT22;3007;50.770;0.250;2023-04-01T09:24:41;12.60;99.90
5962;DHT22;3007;50.770;0.250;2023-04-01T09:27:18;12.60;99.90
5962;DHT22;3007;50.770;0.250;2023-04-01T09:30:06;12.70;99.90
5962;DHT22;3007;50.770;0.250;2023-04-01T09:35:38;12.90;99.90
5962;DHT22;3007;50.770;0.250;2023-04-01T09:38:21;13.10;99.90
5962;DHT22;3007;50.770;0.250;2023-04-01T09:40:54;13.20;99.90
5962;DHT22;3007;50.770;0.250;2023-04-01T09:43:26;13.30;99.90
5962;DHT22;3007;50.770;0.250;2023-04-01T09:46:14;13.40;99.90
5962;DHT22;3007;50.770;0.250;2023-04-01T09:49:06;13.50;99.90
5962;DHT22;3007;50.770;0.250;2023-04-01T09:51:40;13.60;99.90
5962;DHT22;3007;50.770;0.250;2023-04-01T09:54:23;13.60;99.90
5962;DHT22;3007;50.770;0.250;2023-04-01T09:57:10;13.60;99.90
5962;DHT22;3007;50.770;0.250;2023-04-01T10:00:18;13.70;99.90
5962;DHT22;3007;50.770;0.250;2023-04-01T10:03:24;13.80;99.90
5962;DHT22;3007;50.770;0.250;2023-04-01T10:09:49;13.60;99.90
5962;DHT22;3007;50.770;0.250;2023-04-01T10:12:55;13.50;99.90
5962;DHT22;3007;50.770;0.250;2023-04-01T10:15:41;13.30;99.90
5962;DHT22;3007;50.770;0.250;2023-04-01T10:31:16;12.80;99.90
5962;DHT22;3007;50.770;0.250;2023-04-01T10:34:10;12.90;99.90
5962;DHT22;3007;50.770;0.250;2023-04-01T10:36:48;13.00;99.90
5962;DHT22;3007;50.770;0.250;2023-04-01T10:39:34;13.10;99.90
5962;DHT22;3007;50.770;0.250;2023-04-01T10:48:54;12.70;99.90
5962;DHT22;3007;50.770;0.250;2023-04-01T10:54:43;12.70;99.90
5962;DHT22;3007;50.770;0.250;2023-04-01T10:57:38;12.80;99.90
5962;DHT22;3007;50.770;0.250;2023-04-01T11:01:03;12.90;99.90
5962;DHT22;3007;50.770;0.250;2023-04-01T11:03:58;13.00;99.90
5962;DHT22;3007;50.770;0.250;2023-04-01T11:07:04;13.10;99.90
5962;DHT22;3007;50.770;0.250;2023-04-01T11:13:24;13.40;99.90
5962;DHT22;3007;50.770;0.250;2023-04-01T11:16:24;13.50;99.90
5962;DHT22;3007;50.770;0.250;2023-04-01T11:19:20;13.50;99.90
5962;DHT22;3007;50.770;0.250;2023-04-01T11:21:59;13.60;99.90
5962;DHT22;3007;50.770;0.250;2023-04-01T11:24:52;13.70;99.90
5962;DHT22;3007;50.770;0.250;2023-04-01T11:27:39;13.80;99.90
5962;DHT22;3007;50.770;0.250;2023-04-01T11:30:19;13.80;99.90
5962;DHT22;3007;50.770;0.250;2023-04-01T11:32:52;13.90;99.90
5962;DHT22;3007;50.770;0.250;2023-04-01T11:38:35;14.20;99.90
5962;DHT22;3007;50.770;0.250;2023-04-01T11:41:19;14.10;99.90
5962;DHT22;3007;50.770;0.250;2023-04-01T11:44:01;14.10;99.90
5962;DHT22;3007;50.770;0.250;2023-04-01T11:46:33;14.20;99.90
5962;DHT22;3007;50.770;0.250;2023-04-01T11:49:09;14.20;99.90
5962;DHT22;3007;50.770;0.250;2023-04-01T11:52:05;14.20;99.90
5962;DHT22;3007;50.770;0.250;2023-04-01T11:57:51;14.40;99.90
5962;DHT22;3007;50.770;0.250;2023-04-01T12:00:47;14.60;99.90
5962;DHT22;3007;50.770;0.250;2023-04-01T12:03:41;14.70;99.90
5962;DHT22;3007;50.770;0.250;2023-04-01T12:06:18;14.60;99.90
5962;DHT22;3007;50.770;0.250;2023-04-01T12:08:51;14.60;99.90
5962;DHT22;3007;50.770;0.250;2023-04-01T12:11:27;14.50;99.90
5962;DHT22;3007;50.770;0.250;2023-04-01T12:14:02;14.40;99.90
5962;DHT22;3007;50.770;0.250;2023-04-01T12:16:41;14.30;99.90
5962;DHT22;3007;50.770;0.250;2023-04-01T12:19:20;14.30;99.90
5962;DHT22;3007;50.770;0.250;2023-04-01T12:21:59;14.40;99.90
5962;DHT22;3007;50.770;0.250;2023-04-01T12:24:46;14.40;99.90
5962;DHT22;3007;50.770;0.250;2023-04-01T12:27:26;14.40;99.90
5962;DHT22;3007;50.770;0.250;2023-04-01T12:30:10;14.30;99.90
5962;DHT22;3007;50.770;0.250;2023-04-01T12:32:46;14.20;99.90
5962;DHT22;3007;50.770;0.250;2023-04-01T12:35:22;14.20;99.90
5962;DHT22;3007;50.770;0.250;2023-04-01T12:37:58;14.30;99.90
5962;DHT22;3007;50.770;0.250;2023-04-01T12:40:45;14.30;99.90
5962;DHT22;3007;50.770;0.250;2023-04-01T12:43:34;14.30;99.90
5962;DHT22;3007;50.770;0.250;2023-04-01T12:46:14;14.20;99.90
5962;DHT22;3007;50.770;0.250;2023-04-01T12:49:15;14.20;99.90
5962;DHT22;3007;50.770;0.250;2023-04-01T12:51:53;14.20;99.90
5962;DHT22;3007;50.770;0.250;2023-04-01T12:54:58;14.20;99.90
5962;DHT22;3007;50.770;0.250;2023-04-01T13:03:44;14.40;99.90
5962;DHT22;3007;50.770;0.250;2023-04-01T13:06:28;14.50;99.90
5962;DHT22;3007;50.770;0.250;2023-04-01T13:09:06;14.70;99.90
5962;DHT22;3007;50.770;0.250;2023-04-01T13:11:56;14.90;99.90
5962;DHT22;3007;50.770;0.250;2023-04-01T13:14:51;15.00;99.90
5962;DHT22;3007;50.770;0.250;2023-04-01T13:17:27;15.10;99.90
5962;DHT22;3007;50.770;0.250;2023-04-01T13:20:07;15.30;99.90
5962;DHT22;3007;50.770;0.250;2023-04-01T13:22:51;15.20;99.90
5962;DHT22;3007;50.770;0.250;2023-04-01T13:25:26;15.10;99.90
5962;DHT22;3007;50.770;0.250;2023-04-01T13:27:58;15.10;99.90
5962;DHT22;3007;50.770;0.250;2023-04-01T13:30:35;15.10;99.90
5962;DHT22;3007;50.770;0.250;2023-04-01T13:33:13;15.10;99.90
5962;DHT22;3007;50.770;0.250;2023-04-01T13:35:46;15.10;99.90
5962;DHT22;3007;50.770;0.250;2023-04-01T13:38:48;15.00;99.90
5962;DHT22;3007;50.770;0.250;2023-04-01T13:41:26;15.00;99.90
5962;DHT22;3007;50.770;0.250;2023-04-01T13:44:00;14.90;99.90
5962;DHT22;3007;50.770;0.250;2023-04-01T13:46:50;14.70;99.90
5962;DHT22;3007;50.770;0.250;2023-04-01T13:49:31;14.60;99.90
5962;DHT22;3007;50.770;0.250;2023-04-01T13:52:29;14.60;99.90
5962;DHT22;3007;50.770;0.250;2023-04-01T13:55:20;14.40;99.90
5962;DHT22;3007;50.770;0.250;2023-04-01T14:01:05;14.20;99.90
5962;DHT22;3007;50.770;0.250;2023-04-01T14:03:52;14.10;99.90
5962;DHT22;3007;50.770;0.250;2023-04-01T14:06:31;14.00;99.90
5962;DHT22;3007;50.770;0.250;2023-04-01T14:09:29;14.10;99.90
5962;DHT22;3007;50.770;0.250;2023-04-01T14:12:04;14.20;99.90
5962;DHT22;3007;50.770;0.250;2023-04-01T14:14:44;14.30;99.90
5962;DHT22;3007;50.770;0.250;2023-04-01T14:17:29;14.30;99.90
5962;DHT22;3007;50.770;0.250;2023-04-01T14:20:37;14.30;99.90
5962;DHT22;3007;50.770;0.250;2023-04-01T14:23:37;14.40;99.90
5962;DHT22;3007;50.770;0.250;2023-04-01T14:26:50;14.50;99.90
5962;DHT22;3007;50.770;0.250;2023-04-01T14:29:26;14.60;99.90
5962;DHT22;3007;50.770;0.250;2023-04-01T14:32:07;14.70;99.90
5962;DHT22;3007;50.770;0.250;2023-04-01T14:34:50;14.70;99.90
5962;DHT22;3007;50.770;0.250;2023-04-01T14:37:41;14.80;99.90
5962;DHT22;3007;50.770;0.250;2023-04-01T14:40:27;14.90;99.90
5962;DHT22;3007;50.770;0.250;2023-04-01T14:49:17;15.00;99.90
5962;DHT22;3007;50.770;0.250;2023-04-01T14:51:47;15.00;99.90
5962;DHT22;3007;50.770;0.250;2023-04-01T14:54:19;15.00;99.90
5962;DHT22;3007;50.770;0.250;2023-04-01T14:56:50;15.10;99.90
5962;DHT22;3007;50.770;0.250;2023-04-01T14:59:27;15.10;99.90
5962;DHT22;3007;50.770;0.250;2023-04-01T15:01:59;15.00;99.90
5962;DHT22;3007;50.770;0.250;2023-04-01T15:04:55;14.90;99.90
5962;DHT22;3007;50.770;0.250;2023-04-01T15:07:51;14.80;99.90
5962;DHT22;3007;50.770;0.250;2023-04-01T15:10:58;14.70;99.90
5962;DHT22;3007;50.770;0.250;2023-04-01T15:13:41;14.30;99.90
5962;DHT22;3007;50.770;0.250;2023-04-01T15:16:19;14.20;99.90
5962;DHT22;3007;50.770;0.250;2023-04-01T15:18:56;14.20;99.90
5962;DHT22;3007;50.770;0.250;2023-04-01T15:21:40;14.20;99.90
5962;DHT22;3007;50.770;0.250;2023-04-01T15:24:15;14.30;99.90
5962;DHT22;3007;50.770;0.250;2023-04-01T15:27:19;14.40;99.90
5962;DHT22;3007;50.770;0.250;2023-04-01T15:30:18;14.40;99.90
5962;DHT22;3007;50.770;0.250;2023-04-01T15:32:55;14.50;99.90
5962;DHT22;3007;50.770;0.250;2023-04-01T15:35:34;14.40;99.90
5962;DHT22;3007;50.770;0.250;2023-04-01T15:38:06;14.10;99.90
5962;DHT22;3007;50.770;0.250;2023-04-01T15:40:42;14.10;99.90
5962;DHT22;3007;50.770;0.250;2023-04-01T15:43:26;14.10;99.90
5962;DHT22;3007;50.770;0.250;2023-04-01T15:45:58;14.10;99.90
5962;DHT22;3007;50.770;0.250;2023-04-01T15:48:49;14.20;99.90
5962;DHT22;3007;50.770;0.250;2023-04-01T15:51:31;14.30;99.90
5962;DHT22;3007;50.770;0.250;2023-04-01T15:54:23;14.30;99.90
5962;DHT22;3007;50.770;0.250;2023-04-01T15:57:08;14.20;99.90
5962;DHT22;3007;50.770;0.250;2023-04-01T16:00:09;14.10;99.90
5962;DHT22;3007;50.770;0.250;2023-04-01T16:02:44;14.00;99.90
5962;DHT22;3007;50.770;0.250;2023-04-01T16:05:25;13.80;99.90
5962;DHT22;3007;50.770;0.250;2023-04-01T16:08:12;13.70;99.90
5962;DHT22;3007;50.770;0.250;2023-04-01T16:11:02;13.60;99.90
5962;DHT22;3007;50.770;0.250;2023-04-01T16:13:46;13.60;99.90
5962;DHT22;3007;50.770;0.250;2023-04-01T16:16:25;13.70;97.80
5962;DHT22;3007;50.770;0.250;2023-04-01T16:19:12;13.80;90.60
5962;DHT22;3007;50.770;0.250;2023-04-01T16:21:46;13.70;42.40
5962;DHT22;3007;50.770;0.250;2023-04-01T16:24:22;13.60;14.00
5962;DHT22;3007;50.770;0.250;2023-04-01T16:26:54;13.60;24.10
5962;DHT22;3007;50.770;0.250;2023-04-01T16:29:30;13.60;44.90
5962;DHT22;3007;50.770;0.250;2023-04-01T16:32:13;13.60;39.10
5962;DHT22;3007;50.770;0.250;2023-04-01T16:34:46;13.60;38.70
5962;DHT22;3007;50.770;0.250;2023-04-01T16:37:19;13.50;46.50
5962;DHT22;3007;50.770;0.250;2023-04-01T16:39:52;13.40;42.40
5962;DHT22;3007;50.770;0.250;2023-04-01T16:42:28;13.40;59.80
5962;DHT22;3007;50.770;0.250;2023-04-01T16:45:06;13.30;77.40
5962;DHT22;3007;50.770;0.250;2023-04-01T16:47:49;13.40;67.10
5962;DHT22;3007;50.770;0.250;2023-04-01T16:50:20;13.30;49.50
5962;DHT22;3007;50.770;0.250;2023-04-01T16:52:58;13.30;59.10
5962;DHT22;3007;50.770;0.250;2023-04-01T16:55:35;13.30;90.50
5962;DHT22;3007;50.770;0.250;2023-04-01T16:58:10;13.30;67.60
5962;DHT22;3007;50.770;0.250;2023-04-01T17:00:47;13.30;68.20
5962;DHT22;3007;50.770;0.250;2023-04-01T17:03:20;13.20;73.10
5962;DHT22;3007;50.770;0.250;2023-04-01T17:05:56;13.20;74.80
5962;DHT22;3007;50.770;0.250;2023-04-01T17:08:40;13.10;75.70
5962;DHT22;3007;50.770;0.250;2023-04-01T17:11:16;13.00;61.80
5962;DHT22;3007;50.770;0.250;2023-04-01T17:13:52;12.80;82.80
5962;DHT22;3007;50.770;0.250;2023-04-01T17:19:49;12.70;97.10
5962;DHT22;3007;50.770;0.250;2023-04-01T17:22:31;12.60;94.50
5962;DHT22;3007;50.770;0.250;2023-04-01T17:25:13;12.50;99.90
5962;DHT22;3007;50.770;0.250;2023-04-01T17:27:47;12.50;99.90
5962;DHT22;3007;50.770;0.250;2023-04-01T17:30:27;12.50;99.90
5962;DHT22;3007;50.770;0.250;2023-04-01T17:35:56;12.30;99.90
5962;DHT22;3007;50.770;0.250;2023-04-01T17:38:47;12.30;99.90
5962;DHT22;3007;50.770;0.250;2023-04-01T17:41:27;12.20;99.90
5962;DHT22;3007;50.770;0.250;2023-04-01T17:44:01;12.20;99.90
5962;DHT22;3007;50.770;0.250;2023-04-01T17:46:36;12.20;99.90
5962;DHT22;3007;50.770;0.250;2023-04-01T17:49:19;12.10;99.90
5962;DHT22;3007;50.770;0.250;2023-04-01T17:51:55;12.00;99.90
5962;DHT22;3007;50.770;0.250;2023-04-01T17:54:30;11.90;99.90
5962;DHT22;3007;50.770;0.250;2023-04-01T17:57:13;11.90;99.90
5962;DHT22;3007;50.770;0.250;2023-04-01T17:59:55;11.90;99.90
5962;DHT22;3007;50.770;0.250;2023-04-01T18:02:29;11.80;99.90
5962;DHT22;3007;50.770;0.250;2023-04-01T18:05:22;11.80;99.90
5962;DHT22;3007;50.770;0.250;2023-04-01T18:08:03;11.70;99.90
5962;DHT22;3007;50.770;0.250;2023-04-01T18:10:39;11.60;99.90
5962;DHT22;3007;50.770;0.250;2023-04-01T18:13:30;11.60;99.90
5962;DHT22;3007;50.770;0.250;2023-04-01T18:16:18;11.60;99.90